createdAt,value
2019-03-25T00:02:45.620Z,43.90
2019-03-25T00:07:52.746Z,44.37
2019-03-25T00:13:01.011Z,46.03
2019-03-25T00:18:07.748Z,40.63
2019-03-25T00:23:14.377Z,41.97
2019-03-25T00:28:20.688Z,37.70
2019-03-25T00:33:27.407Z,46.37
2019-03-25T00:38:34.092Z,41.68
2019-03-25T00:43:42.017Z,45.60
2019-03-25T00:48:48.701Z,43.53
2019-03-25T00:53:55.499Z,38.73
2019-03-25T00:59:03.525Z,37.10
2019-03-25T01:04:10.013Z,41.55
2019-03-25T01:09:16.313Z,40.23
2019-03-25T01:14:22.811Z,46.98
2019-03-25T01:19:29.041Z,39.43
2019-03-25T01:24:35.696Z,36.03
2019-03-25T01:29:42.629Z,41.77
2019-03-25T01:34:49.516Z,42.73
2019-03-25T01:39:55.881Z,49.10
2019-03-25T01:45:05.718Z,51.05
2019-03-25T01:50:12.620Z,46.40
2019-03-25T01:55:19.063Z,44.60
2019-03-25T02:00:25.639Z,44.03
2019-03-25T02:05:32.203Z,46.85
2019-03-25T02:10:39.220Z,48.40
2019-03-25T02:15:45.710Z,51.55
2019-03-25T02:20:52.945Z,49.35
2019-03-25T02:25:59.800Z,52.90
2019-03-25T02:31:06.326Z,45.10
2019-03-25T02:36:12.961Z,41.92
2019-03-25T02:41:19.472Z,51.18
2019-03-25T02:46:25.871Z,51.23
2019-03-25T02:51:32.601Z,44.80
2019-03-25T02:56:39.400Z,45.97
2019-03-25T03:01:46.385Z,57.43
2019-03-25T03:06:54.407Z,57.33
2019-03-25T03:12:01.081Z,49.90
2019-03-25T03:17:07.963Z,54.90
2019-03-25T03:22:14.579Z,51.77
2019-03-25T03:27:20.990Z,56.20
2019-03-25T03:32:27.390Z,55.07
2019-03-25T03:37:34.073Z,52.00
2019-03-25T03:42:40.629Z,47.33
2019-03-25T03:47:47.727Z,54.90
2019-03-25T03:52:55.084Z,57.55
2019-03-25T03:58:02.005Z,54.38
2019-03-25T04:03:08.413Z,58.17
2019-03-25T04:57:51.066Z,58.07
2019-03-25T05:02:57.285Z,52.37
2019-03-25T05:08:05.146Z,51.73
2019-03-25T05:13:11.332Z,59.43
2019-03-25T05:18:18.234Z,48.70
2019-03-25T05:23:25.463Z,66.97
2019-03-25T05:28:31.875Z,51.50
2019-03-25T05:33:38.658Z,58.37
2019-03-25T05:38:44.969Z,59.47
2019-03-25T05:43:51.317Z,63.10
2019-03-25T05:48:58.162Z,57.73
2019-03-25T05:54:04.452Z,56.80
2019-03-25T05:59:31.521Z,56.23
2019-03-25T06:04:38.025Z,57.43
2019-03-25T06:09:57.607Z,54.40
2019-03-25T06:15:07.858Z,55.27
2019-03-25T06:26:38.270Z,55.23
2019-03-25T06:31:44.662Z,51.57
2019-03-25T06:37:14.281Z,55.10
2019-03-25T06:43:01.131Z,51.43
2019-03-25T06:48:10.207Z,57.30
2019-03-25T06:53:19.593Z,56.60
2019-03-25T06:58:46.210Z,42.50
2019-03-25T07:03:59.269Z,44.57
2019-03-25T07:09:07.653Z,41.73
2019-03-25T07:14:36.427Z,42.37
2019-03-25T07:19:44.300Z,35.93
2019-03-25T07:24:50.736Z,32.83
2019-03-25T07:29:58.178Z,30.80
2019-03-25T07:35:07.238Z,37.43
2019-03-25T07:40:14.887Z,30.60
2019-03-25T07:45:21.325Z,33.00
2019-03-25T07:50:27.820Z,27.10
2019-03-25T07:55:34.219Z,25.63
2019-03-25T08:00:40.898Z,26.27
2019-03-25T08:05:47.226Z,28.60
2019-03-25T08:10:53.508Z,22.80
2019-03-25T08:16:00.027Z,22.57
2019-03-25T08:21:06.400Z,16.90
2019-03-25T08:26:14.428Z,30.85
2019-03-25T08:31:20.533Z,25.32
2019-03-25T08:36:47.124Z,31.70
2019-03-25T08:41:53.682Z,27.85
2019-03-25T08:47:00.334Z,18.27
2019-03-25T08:52:33.682Z,21.20
2019-03-25T08:57:42.690Z,31.05
2019-03-25T09:02:48.966Z,30.35
2019-03-25T09:07:55.713Z,6.78
2019-03-25T09:13:01.959Z,8.48
2019-03-25T09:18:08.313Z,9.43
2019-03-25T09:23:15.093Z,14.87
2019-03-25T09:28:24.508Z,3.98
2019-03-25T09:33:31.043Z,4.03
2019-03-25T09:38:37.482Z,15.35
2019-03-25T09:43:46.877Z,7.47
2019-03-25T09:48:53.418Z,6.97
2019-03-25T09:53:59.702Z,12.37
2019-03-25T09:59:06.091Z,7.55
2019-03-25T10:04:14.194Z,6.17
2019-03-25T10:09:21.573Z,7.08
2019-03-25T10:14:30.309Z,6.40
2019-03-25T10:19:37.010Z,7.72
2019-03-25T10:24:44.483Z,5.95
2019-03-25T10:29:53.492Z,8.53
2019-03-25T10:34:59.880Z,3.95
2019-03-25T10:40:06.722Z,5.97
2019-03-25T10:45:13.813Z,5.67
2019-03-25T10:50:20.164Z,10.58
2019-03-25T10:55:26.463Z,5.28
2019-03-25T11:00:33.095Z,6.25
2019-03-25T11:05:39.472Z,4.17
2019-03-25T11:10:45.935Z,5.17
2019-03-25T11:15:52.474Z,3.27
2019-03-25T11:20:59.462Z,2.75
2019-03-25T11:26:05.903Z,2.37
2019-03-25T11:31:12.107Z,1.95
2019-03-25T11:36:19.375Z,4.03
2019-03-25T11:41:36.438Z,2.10
2019-03-25T11:46:44.822Z,3.52
2019-03-25T11:51:51.877Z,2.40
2019-03-25T11:57:54.046Z,4.22
2019-03-25T12:03:01.356Z,2.83
2019-03-25T12:08:09.043Z,1.52
2019-03-25T12:19:37.802Z,2.47
2019-03-25T12:24:44.355Z,1.40
2019-03-25T12:29:58.454Z,0.80
2019-03-25T12:35:05.044Z,0.70
2019-03-25T12:40:11.656Z,1.50
2019-03-25T12:45:18.155Z,3.70
2019-03-25T12:50:26.313Z,3.02
2019-03-25T12:55:33.832Z,1.20
2019-03-25T13:00:42.252Z,1.00
2019-03-25T13:05:48.948Z,1.42
2019-03-25T13:10:55.569Z,3.83
2019-03-25T13:16:01.742Z,4.15
2019-03-25T13:21:08.450Z,2.25
2019-03-25T13:26:18.349Z,1.77
2019-03-25T13:31:25.336Z,2.83
2019-03-25T13:36:32.208Z,2.33
2019-03-25T13:41:38.311Z,0.98
2019-03-25T13:46:46.556Z,3.37
2019-03-25T13:51:53.026Z,3.90
2019-03-25T13:56:59.246Z,0.98
2019-03-25T14:02:05.702Z,1.12
2019-03-25T14:07:13.728Z,1.52
2019-03-25T14:12:23.914Z,1.20
2019-03-25T14:17:30.530Z,1.42
2019-03-25T14:22:36.875Z,4.00
2019-03-25T14:27:43.272Z,3.70
2019-03-25T14:32:50.113Z,6.00
2019-03-25T14:37:56.479Z,4.90
2019-03-25T14:43:03.921Z,5.70
2019-03-25T14:48:10.735Z,4.53
2019-03-25T14:53:17.179Z,8.03
2019-03-25T14:58:24.187Z,3.37
2019-03-25T15:03:41.160Z,2.02
2019-03-25T15:08:49.059Z,1.90
2019-03-25T15:14:26.140Z,1.15
2019-03-25T15:19:33.172Z,2.50
2019-03-25T15:24:39.582Z,1.02
2019-03-25T15:29:46.651Z,2.20
2019-03-25T15:34:57.107Z,2.93
2019-03-25T15:40:03.327Z,1.22
2019-03-25T15:45:10.743Z,2.70
2019-03-25T15:50:28.594Z,2.30
2019-03-25T15:55:36.120Z,3.67
2019-03-25T16:01:04.952Z,2.17
2019-03-25T16:06:11.164Z,3.50
2019-03-25T16:11:18.797Z,4.13
2019-03-25T16:16:34.119Z,3.10
2019-03-25T16:21:43.975Z,2.97
2019-03-25T16:26:50.427Z,4.33
2019-03-25T16:31:57.646Z,5.13
2019-03-25T16:37:22.510Z,0.97
2019-03-25T16:42:28.844Z,3.80
2019-03-25T16:47:35.288Z,0.90
2019-03-25T16:52:41.454Z,1.83
2019-03-25T16:57:47.803Z,2.53
2019-03-25T17:02:54.194Z,2.00
2019-03-25T17:08:01.604Z,2.70
2019-03-25T17:13:09.889Z,6.17
2019-03-25T17:18:34.457Z,1.10
2019-03-25T17:23:51.142Z,1.77
2019-03-25T17:29:13.175Z,0.70
2019-03-25T17:34:32.710Z,0.23
2019-03-25T17:40:32.003Z,0.50
2019-03-25T17:45:47.992Z,0.57
2019-03-25T17:51:18.374Z,1.73
2019-03-25T17:57:08.127Z,0.50
2019-03-25T18:02:14.667Z,0.67
2019-03-25T18:07:28.422Z,2.27
2019-03-25T18:12:41.499Z,11.33
2019-03-25T18:18:11.834Z,3.30
2019-03-25T18:23:26.869Z,2.07
2019-03-25T18:41:20.333Z,2.20
2019-03-25T18:46:28.334Z,2.60
2019-03-25T18:51:36.012Z,1.73
2019-03-25T18:56:46.542Z,4.73
2019-03-25T19:01:58.155Z,2.00
2019-03-25T19:07:06.895Z,1.90
2019-03-25T19:12:22.718Z,1.20
2019-03-25T19:17:41.885Z,3.23
2019-03-25T19:22:57.664Z,5.43
2019-03-25T19:28:06.403Z,4.80
2019-03-25T19:33:13.128Z,2.70
2019-03-25T19:38:20.618Z,1.70
2019-03-25T19:43:28.406Z,2.47
2019-03-25T19:48:37.018Z,2.27
2019-03-25T19:53:43.633Z,1.60
2019-03-25T19:58:50.285Z,3.30
2019-03-25T20:03:57.226Z,2.80
2019-03-25T20:09:05.526Z,2.37
2019-03-25T20:14:12.353Z,3.47
2019-03-25T20:19:20.499Z,5.17
2019-03-25T20:24:27.466Z,1.67
2019-03-25T20:29:33.763Z,2.90
2019-03-25T20:34:40.557Z,1.47
2019-03-25T20:39:47.853Z,2.43
2019-03-25T20:44:55.536Z,3.07
2019-03-25T20:50:02.519Z,1.70
2019-03-25T20:55:09.690Z,2.60
2019-03-25T21:00:18.269Z,2.80
2019-03-25T21:05:24.963Z,5.07
2019-03-25T21:10:31.542Z,3.83
2019-03-25T21:15:40.541Z,4.03
2019-03-25T21:20:46.803Z,2.13
2019-03-25T21:25:53.239Z,3.77
2019-03-25T21:31:00.085Z,3.33
2019-03-25T21:36:07.557Z,6.37
2019-03-25T21:41:15.961Z,4.70
2019-03-25T21:46:22.595Z,3.90
2019-03-25T21:51:29.923Z,2.97
2019-03-25T21:56:36.745Z,3.57
2019-03-25T22:01:43.241Z,6.27
2019-03-25T22:06:49.705Z,3.50
2019-03-25T22:11:56.180Z,2.77
2019-03-25T22:17:02.698Z,5.23
2019-03-25T22:22:09.140Z,4.87
2019-03-25T22:27:15.616Z,4.00
2019-03-25T22:32:21.971Z,8.93
2019-03-25T22:37:28.384Z,4.93
2019-03-25T22:42:34.892Z,4.07
2019-03-25T22:47:41.320Z,7.13
2019-03-25T22:52:47.653Z,5.23
2019-03-25T22:57:54.038Z,13.97
2019-03-25T23:03:00.351Z,4.77
2019-03-25T23:08:06.950Z,5.90
2019-03-25T23:13:13.464Z,9.80
2019-03-25T23:18:20.257Z,6.27
2019-03-25T23:23:27.008Z,4.83
2019-03-25T23:28:33.455Z,7.50
2019-03-25T23:33:51.721Z,4.63
2019-03-25T23:38:47.701Z,5.53
2019-03-25T23:43:54.059Z,6.53
2019-03-25T23:49:00.893Z,5.50
2019-03-25T23:54:14.159Z,5.47
2019-03-25T23:59:20.975Z,3.27
